sensor_id;sensor_type;location;lat;lon;timestamp;temperature;humidity
22416;DHT22;12204;50.600;4.608;2022-07-29T00:01:56;25.60;59.10
22416;DHT22;12204;50.600;4.608;2022-07-29T00:07:01;25.60;59.30
22416;DHT22;12204;50.600;4.608;2022-07-29T00:12:06;25.60;59.30
22416;DHT22;12204;50.600;4.608;2022-07-29T00:17:11;25.60;59.40
22416;DHT22;12204;50.600;4.608;2022-07-29T00:22:21;25.60;59.40
22416;DHT22;12204;50.600;4.608;2022-07-29T00:27:25;25.60;59.50
22416;DHT22;12204;50.600;4.608;2022-07-29T00:32:28;25.60;59.70
22416;DHT22;12204;50.600;4.608;2022-07-29T00:37:33;25.60;59.60
22416;DHT22;12204;50.600;4.608;2022-07-29T00:42:44;25.60;59.60
22416;DHT22;12204;50.600;4.608;2022-07-29T00:47:49;25.60;59.70
22416;DHT22;12204;50.600;4.608;2022-07-29T00:52:54;25.60;59.70
22416;DHT22;12204;50.600;4.608;2022-07-29T00:57:58;25.60;59.80
22416;DHT22;12204;50.600;4.608;2022-07-29T01:03:03;25.60;60.00
22416;DHT22;12204;50.600;4.608;2022-07-29T01:08:08;25.60;59.90
22416;DHT22;12204;50.600;4.608;2022-07-29T01:13:13;25.60;59.70
22416;DHT22;12204;50.600;4.608;2022-07-29T01:18:22;25.60;59.90
22416;DHT22;12204;50.600;4.608;2022-07-29T01:23:57;25.60;59.90
22416;DHT22;12204;50.600;4.608;2022-07-29T01:29:18;25.60;59.90
22416;DHT22;12204;50.600;4.608;2022-07-29T01:34:42;25.60;59.90
22416;DHT22;12204;50.600;4.608;2022-07-29T01:39:54;25.60;59.70
22416;DHT22;12204;50.600;4.608;2022-07-29T01:45:06;25.60;59.80
22416;DHT22;12204;50.600;4.608;2022-07-29T01:50:17;25.60;59.70
22416;DHT22;12204;50.600;4.608;2022-07-29T01:55:28;25.60;59.90
22416;DHT22;12204;50.600;4.608;2022-07-29T02:00:37;25.60;60.10
22416;DHT22;12204;50.600;4.608;2022-07-29T02:05:46;25.60;60.00
22416;DHT22;12204;50.600;4.608;2022-07-29T02:10:52;25.60;60.00
22416;DHT22;12204;50.600;4.608;2022-07-29T02:15:58;25.60;60.10
22416;DHT22;12204;50.600;4.608;2022-07-29T02:21:03;25.60;60.80
22416;DHT22;12204;50.600;4.608;2022-07-29T02:26:17;25.60;60.10
22416;DHT22;12204;50.600;4.608;2022-07-29T02:31:26;25.60;60.10
22416;DHT22;12204;50.600;4.608;2022-07-29T02:36:34;25.60;60.30
22416;DHT22;12204;50.600;4.608;2022-07-29T02:41:42;25.60;60.20
22416;DHT22;12204;50.600;4.608;2022-07-29T02:46:51;25.60;60.00
22416;DHT22;12204;50.600;4.608;2022-07-29T02:52:20;25.60;60.40
22416;DHT22;12204;50.600;4.608;2022-07-29T02:57:31;25.60;61.20
22416;DHT22;12204;50.600;4.608;2022-07-29T03:03:00;25.60;60.30
22416;DHT22;12204;50.600;4.608;2022-07-29T03:08:07;25.60;60.30
22416;DHT22;12204;50.600;4.608;2022-07-29T03:13:14;25.60;60.50
22416;DHT22;12204;50.600;4.608;2022-07-29T03:18:20;25.50;60.30
22416;DHT22;12204;50.600;4.608;2022-07-29T03:23:24;25.60;60.80
22416;DHT22;12204;50.600;4.608;2022-07-29T03:28:36;25.50;60.80
22416;DHT22;12204;50.600;4.608;2022-07-29T03:33:41;25.50;60.70
22416;DHT22;12204;50.600;4.608;2022-07-29T03:38:46;25.50;60.60
22416;DHT22;12204;50.600;4.608;2022-07-29T03:43:52;25.60;60.40
22416;DHT22;12204;50.600;4.608;2022-07-29T03:49:00;25.60;60.40
22416;DHT22;12204;50.600;4.608;2022-07-29T03:54:05;25.60;60.30
22416;DHT22;12204;50.600;4.608;2022-07-29T03:59:11;25.60;60.40
22416;DHT22;12204;50.600;4.608;2022-07-29T04:04:18;25.60;60.40
22416;DHT22;12204;50.600;4.608;2022-07-29T04:09:22;25.60;60.50
22416;DHT22;12204;50.600;4.608;2022-07-29T04:14:25;25.50;60.70
22416;DHT22;12204;50.600;4.608;2022-07-29T04:19:31;25.50;60.60
22416;DHT22;12204;50.600;4.608;2022-07-29T04:24:35;25.50;60.40
22416;DHT22;12204;50.600;4.608;2022-07-29T04:29:39;25.60;60.30
22416;DHT22;12204;50.600;4.608;2022-07-29T04:34:59;25.50;60.80
22416;DHT22;12204;50.600;4.608;2022-07-29T04:40:04;25.50;60.90
22416;DHT22;12204;50.600;4.608;2022-07-29T04:45:09;25.50;60.80
22416;DHT22;12204;50.600;4.608;2022-07-29T04:50:16;25.50;60.60
22416;DHT22;12204;50.600;4.608;2022-07-29T04:55:20;25.50;60.80
22416;DHT22;12204;50.600;4.608;2022-07-29T05:00:23;25.50;60.80
22416;DHT22;12204;50.600;4.608;2022-07-29T05:05:35;25.50;60.30
22416;DHT22;12204;50.600;4.608;2022-07-29T05:10:39;25.50;58.50
22416;DHT22;12204;50.600;4.608;2022-07-29T05:15:43;25.50;58.00
22416;DHT22;12204;50.600;4.608;2022-07-29T05:20:48;25.50;58.00
22416;DHT22;12204;50.600;4.608;2022-07-29T05:25:51;25.50;57.70
22416;DHT22;12204;50.600;4.608;2022-07-29T05:30:56;25.50;57.60
22416;DHT22;12204;50.600;4.608;2022-07-29T05:36:02;25.50;56.80
22416;DHT22;12204;50.600;4.608;2022-07-29T05:41:07;25.50;56.60
22416;DHT22;12204;50.600;4.608;2022-07-29T05:46:11;25.50;56.60
22416;DHT22;12204;50.600;4.608;2022-07-29T05:51:17;25.50;56.30
22416;DHT22;12204;50.600;4.608;2022-07-29T05:56:20;25.50;56.30
22416;DHT22;12204;50.600;4.608;2022-07-29T06:01:25;25.50;56.40
22416;DHT22;12204;50.600;4.608;2022-07-29T06:06:30;25.40;56.10
22416;DHT22;12204;50.600;4.608;2022-07-29T06:11:34;25.40;56.00
22416;DHT22;12204;50.600;4.608;2022-07-29T06:16:37;25.40;55.90
22416;DHT22;12204;50.600;4.608;2022-07-29T06:21:43;25.40;56.00
22416;DHT22;12204;50.600;4.608;2022-07-29T06:26:47;25.40;55.90
22416;DHT22;12204;50.600;4.608;2022-07-29T06:31:50;25.40;56.00
22416;DHT22;12204;50.600;4.608;2022-07-29T06:36:55;25.40;56.70
22416;DHT22;12204;50.600;4.608;2022-07-29T06:42:00;25.40;56.40
22416;DHT22;12204;50.600;4.608;2022-07-29T06:47:04;25.40;56.80
22416;DHT22;12204;50.600;4.608;2022-07-29T06:52:09;25.40;55.90
22416;DHT22;12204;50.600;4.608;2022-07-29T06:57:13;25.30;55.90
22416;DHT22;12204;50.600;4.608;2022-07-29T07:02:16;25.20;55.60
22416;DHT22;12204;50.600;4.608;2022-07-29T07:07:21;25.20;55.30
22416;DHT22;12204;50.600;4.608;2022-07-29T07:12:25;25.10;55.50
22416;DHT22;12204;50.600;4.608;2022-07-29T07:17:29;25.10;55.40
22416;DHT22;12204;50.600;4.608;2022-07-29T07:22:34;25.10;55.40
22416;DHT22;12204;50.600;4.608;2022-07-29T07:27:39;25.10;55.40
22416;DHT22;12204;50.600;4.608;2022-07-29T07:32:44;25.10;55.30
22416;DHT22;12204;50.600;4.608;2022-07-29T07:37:49;25.10;55.50
22416;DHT22;12204;50.600;4.608;2022-07-29T07:42:52;25.10;55.60
22416;DHT22;12204;50.600;4.608;2022-07-29T07:47:56;25.10;55.70
22416;DHT22;12204;50.600;4.608;2022-07-29T07:53:01;25.10;55.40
22416;DHT22;12204;50.600;4.608;2022-07-29T07:58:06;25.10;55.70
22416;DHT22;12204;50.600;4.608;2022-07-29T08:03:09;25.10;55.70
22416;DHT22;12204;50.600;4.608;2022-07-29T08:08:20;25.10;55.50
22416;DHT22;12204;50.600;4.608;2022-07-29T08:13:25;25.10;56.10
22416;DHT22;12204;50.600;4.608;2022-07-29T08:18:31;25.10;56.30
22416;DHT22;12204;50.600;4.608;2022-07-29T08:23:36;25.10;56.10
22416;DHT22;12204;50.600;4.608;2022-07-29T08:28:50;25.10;56.60
22416;DHT22;12204;50.600;4.608;2022-07-29T08:33:53;25.10;56.60
22416;DHT22;12204;50.600;4.608;2022-07-29T08:39:01;25.10;56.30
22416;DHT22;12204;50.600;4.608;2022-07-29T08:44:06;25.10;56.70
22416;DHT22;12204;50.600;4.608;2022-07-29T08:49:10;25.10;57.10
22416;DHT22;12204;50.600;4.608;2022-07-29T08:54:17;25.20;57.50
22416;DHT22;12204;50.600;4.608;2022-07-29T08:59:21;25.40;57.20
22416;DHT22;12204;50.600;4.608;2022-07-29T09:04:30;25.50;57.20
22416;DHT22;12204;50.600;4.608;2022-07-29T09:09:38;25.40;56.60
22416;DHT22;12204;50.600;4.608;2022-07-29T09:14:42;25.30;56.40
22416;DHT22;12204;50.600;4.608;2022-07-29T09:19:46;25.30;56.70
22416;DHT22;12204;50.600;4.608;2022-07-29T09:24:51;25.30;56.90
22416;DHT22;12204;50.600;4.608;2022-07-29T09:29:58;25.30;56.50
22416;DHT22;12204;50.600;4.608;2022-07-29T09:35:20;25.20;55.60
22416;DHT22;12204;50.600;4.608;2022-07-29T09:40:27;25.20;55.70
22416;DHT22;12204;50.600;4.608;2022-07-29T09:45:33;25.20;55.70
22416;DHT22;12204;50.600;4.608;2022-07-29T09:50:38;25.20;55.50
22416;DHT22;12204;50.600;4.608;2022-07-29T09:55:48;25.20;55.40
22416;DHT22;12204;50.600;4.608;2022-07-29T10:00:54;25.20;55.20
22416;DHT22;12204;50.600;4.608;2022-07-29T10:06:07;25.20;56.70
22416;DHT22;12204;50.600;4.608;2022-07-29T10:11:14;25.20;55.10
22416;DHT22;12204;50.600;4.608;2022-07-29T10:16:19;25.20;55.00
22416;DHT22;12204;50.600;4.608;2022-07-29T10:21:23;25.20;55.00
22416;DHT22;12204;50.600;4.608;2022-07-29T10:26:39;25.20;55.80
22416;DHT22;12204;50.600;4.608;2022-07-29T10:31:49;25.30;55.00
22416;DHT22;12204;50.600;4.608;2022-07-29T10:37:07;25.30;55.20
22416;DHT22;12204;50.600;4.608;2022-07-29T10:42:23;25.30;55.80
22416;DHT22;12204;50.600;4.608;2022-07-29T10:47:35;25.30;55.90
22416;DHT22;12204;50.600;4.608;2022-07-29T10:52:55;25.30;55.90
22416;DHT22;12204;50.600;4.608;2022-07-29T10:58:13;25.30;55.90
22416;DHT22;12204;50.600;4.608;2022-07-29T11:03:43;25.30;55.90
22416;DHT22;12204;50.600;4.608;2022-07-29T11:09:17;25.30;55.90
22416;DHT22;12204;50.600;4.608;2022-07-29T11:15:07;25.30;56.10
22416;DHT22;12204;50.600;4.608;2022-07-29T11:20:39;25.30;56.00
22416;DHT22;12204;50.600;4.608;2022-07-29T11:26:16;25.30;55.60
22416;DHT22;12204;50.600;4.608;2022-07-29T11:31:39;25.30;55.70
22416;DHT22;12204;50.600;4.608;2022-07-29T11:42:55;25.30;55.20
22416;DHT22;12204;50.600;4.608;2022-07-29T11:59:47;25.30;54.70
22416;DHT22;12204;50.600;4.608;2022-07-29T12:04:52;25.30;54.50
22416;DHT22;12204;50.600;4.608;2022-07-29T12:09:57;25.40;54.50
22416;DHT22;12204;50.600;4.608;2022-07-29T12:15:13;25.40;56.20
22416;DHT22;12204;50.600;4.608;2022-07-29T12:20:26;25.40;56.00
22416;DHT22;12204;50.600;4.608;2022-07-29T12:25:33;25.40;55.60
22416;DHT22;12204;50.600;4.608;2022-07-29T12:30:43;25.40;55.70
22416;DHT22;12204;50.600;4.608;2022-07-29T12:35:54;25.50;56.00
22416;DHT22;12204;50.600;4.608;2022-07-29T12:41:12;25.50;55.50
22416;DHT22;12204;50.600;4.608;2022-07-29T12:46:17;25.50;55.60
22416;DHT22;12204;50.600;4.608;2022-07-29T12:51:28;25.40;55.60
22416;DHT22;12204;50.600;4.608;2022-07-29T12:56:33;25.50;55.20
22416;DHT22;12204;50.600;4.608;2022-07-29T13:01:50;25.50;54.40
22416;DHT22;12204;50.600;4.608;2022-07-29T13:07:00;25.50;54.10
22416;DHT22;12204;50.600;4.608;2022-07-29T13:12:08;25.50;54.30
22416;DHT22;12204;50.600;4.608;2022-07-29T13:17:15;25.60;53.70
22416;DHT22;12204;50.600;4.608;2022-07-29T13:22:22;25.60;53.70
22416;DHT22;12204;50.600;4.608;2022-07-29T13:27:28;25.60;53.20
22416;DHT22;12204;50.600;4.608;2022-07-29T13:32:36;25.60;53.10
22416;DHT22;12204;50.600;4.608;2022-07-29T13:37:40;25.60;52.60
22416;DHT22;12204;50.600;4.608;2022-07-29T13:42:44;25.70;52.30
22416;DHT22;12204;50.600;4.608;2022-07-29T13:47:49;25.70;52.30
22416;DHT22;12204;50.600;4.608;2022-07-29T13:52:52;25.70;52.50
22416;DHT22;12204;50.600;4.608;2022-07-29T13:57:56;25.70;52.70
22416;DHT22;12204;50.600;4.608;2022-07-29T14:03:01;25.70;52.10
22416;DHT22;12204;50.600;4.608;2022-07-29T14:08:05;25.70;51.10
22416;DHT22;12204;50.600;4.608;2022-07-29T14:13:09;25.70;51.20
22416;DHT22;12204;50.600;4.608;2022-07-29T14:18:27;25.70;50.90
22416;DHT22;12204;50.600;4.608;2022-07-29T14:23:31;25.80;50.40
22416;DHT22;12204;50.600;4.608;2022-07-29T14:28:35;25.70;50.30
22416;DHT22;12204;50.600;4.608;2022-07-29T14:33:44;25.70;50.40
22416;DHT22;12204;50.600;4.608;2022-07-29T14:38:50;25.70;49.90
22416;DHT22;12204;50.600;4.608;2022-07-29T14:43:53;25.80;49.80
22416;DHT22;12204;50.600;4.608;2022-07-29T14:48:58;25.80;49.70
22416;DHT22;12204;50.600;4.608;2022-07-29T14:54:02;25.70;49.70
22416;DHT22;12204;50.600;4.608;2022-07-29T14:59:06;25.70;49.20
22416;DHT22;12204;50.600;4.608;2022-07-29T15:04:11;25.80;49.30
22416;DHT22;12204;50.600;4.608;2022-07-29T15:09:15;25.80;49.20
22416;DHT22;12204;50.600;4.608;2022-07-29T15:14:18;25.80;48.80
22416;DHT22;12204;50.600;4.608;2022-07-29T15:19:24;25.80;48.90
22416;DHT22;12204;50.600;4.608;2022-07-29T15:24:27;25.90;48.30
22416;DHT22;12204;50.600;4.608;2022-07-29T15:29:31;26.00;48.50
22416;DHT22;12204;50.600;4.608;2022-07-29T15:34:37;25.90;49.50
22416;DHT22;12204;50.600;4.608;2022-07-29T15:39:42;25.90;48.80
22416;DHT22;12204;50.600;4.608;2022-07-29T15:44:45;25.90;49.00
22416;DHT22;12204;50.600;4.608;2022-07-29T15:49:50;25.90;49.10
22416;DHT22;12204;50.600;4.608;2022-07-29T15:54:55;25.90;49.10
22416;DHT22;12204;50.600;4.608;2022-07-29T15:59:59;25.90;49.50
22416;DHT22;12204;50.600;4.608;2022-07-29T16:05:10;26.00;49.30
22416;DHT22;12204;50.600;4.608;2022-07-29T16:10:14;26.20;49.50
22416;DHT22;12204;50.600;4.608;2022-07-29T16:15:18;26.20;49.50
22416;DHT22;12204;50.600;4.608;2022-07-29T16:20:23;26.40;50.00
22416;DHT22;12204;50.600;4.608;2022-07-29T16:25:28;26.40;49.80
22416;DHT22;12204;50.600;4.608;2022-07-29T16:30:51;26.50;48.70
22416;DHT22;12204;50.600;4.608;2022-07-29T16:35:56;26.60;48.90
22416;DHT22;12204;50.600;4.608;2022-07-29T16:41:00;26.60;47.50
22416;DHT22;12204;50.600;4.608;2022-07-29T16:46:05;26.60;48.10
22416;DHT22;12204;50.600;4.608;2022-07-29T16:51:15;26.70;48.40
22416;DHT22;12204;50.600;4.608;2022-07-29T16:56:18;26.70;47.60
22416;DHT22;12204;50.600;4.608;2022-07-29T17:01:22;26.60;47.10
22416;DHT22;12204;50.600;4.608;2022-07-29T17:06:27;26.50;46.50
22416;DHT22;12204;50.600;4.608;2022-07-29T17:11:32;26.50;46.10
22416;DHT22;12204;50.600;4.608;2022-07-29T17:16:57;26.60;47.10
22416;DHT22;12204;50.600;4.608;2022-07-29T17:22:06;26.60;47.00
22416;DHT22;12204;50.600;4.608;2022-07-29T17:27:19;26.50;46.90
22416;DHT22;12204;50.600;4.608;2022-07-29T17:32:23;26.50;46.60
22416;DHT22;12204;50.600;4.608;2022-07-29T17:37:28;26.60;46.30
22416;DHT22;12204;50.600;4.608;2022-07-29T17:42:32;26.50;46.40
22416;DHT22;12204;50.600;4.608;2022-07-29T17:47:35;26.50;46.40
22416;DHT22;12204;50.600;4.608;2022-07-29T17:52:40;26.50;46.30
22416;DHT22;12204;50.600;4.608;2022-07-29T17:57:44;26.50;46.30
22416;DHT22;12204;50.600;4.608;2022-07-29T18:02:49;26.50;46.40
22416;DHT22;12204;50.600;4.608;2022-07-29T18:07:54;26.50;46.70
22416;DHT22;12204;50.600;4.608;2022-07-29T18:12:58;26.50;46.70
22416;DHT22;12204;50.600;4.608;2022-07-29T18:18:03;26.50;46.80
22416;DHT22;12204;50.600;4.608;2022-07-29T18:23:09;26.50;47.70
22416;DHT22;12204;50.600;4.608;2022-07-29T18:28:13;26.50;47.80
22416;DHT22;12204;50.600;4.608;2022-07-29T18:33:18;26.50;47.70
22416;DHT22;12204;50.600;4.608;2022-07-29T18:38:25;26.50;48.50
22416;DHT22;12204;50.600;4.608;2022-07-29T18:43:28;26.50;48.80
22416;DHT22;12204;50.600;4.608;2022-07-29T18:48:32;26.50;48.90
22416;DHT22;12204;50.600;4.608;2022-07-29T18:53:37;26.50;49.40
22416;DHT22;12204;50.600;4.608;2022-07-29T18:58:41;26.50;49.60
22416;DHT22;12204;50.600;4.608;2022-07-29T19:03:45;26.50;50.00
22416;DHT22;12204;50.600;4.608;2022-07-29T19:08:50;26.50;50.10
22416;DHT22;12204;50.600;4.608;2022-07-29T19:13:54;26.50;50.30
22416;DHT22;12204;50.600;4.608;2022-07-29T19:18:59;26.50;50.00
22416;DHT22;12204;50.600;4.608;2022-07-29T19:24:05;26.50;50.00
22416;DHT22;12204;50.600;4.608;2022-07-29T19:29:16;26.40;50.10
22416;DHT22;12204;50.600;4.608;2022-07-29T19:34:20;26.40;50.60
22416;DHT22;12204;50.600;4.608;2022-07-29T19:39:25;26.40;50.90
22416;DHT22;12204;50.600;4.608;2022-07-29T19:44:36;26.40;51.10
22416;DHT22;12204;50.600;4.608;2022-07-29T19:49:39;26.40;51.30
22416;DHT22;12204;50.600;4.608;2022-07-29T19:54:45;26.40;51.40
22416;DHT22;12204;50.600;4.608;2022-07-29T19:59:48;26.40;51.60
22416;DHT22;12204;50.600;4.608;2022-07-29T20:04:52;26.30;51.50
22416;DHT22;12204;50.600;4.608;2022-07-29T20:09:58;26.30;51.80
22416;DHT22;12204;50.600;4.608;2022-07-29T20:15:01;26.30;52.00
22416;DHT22;12204;50.600;4.608;2022-07-29T20:20:07;26.30;52.10
22416;DHT22;12204;50.600;4.608;2022-07-29T20:25:13;26.30;52.20
22416;DHT22;12204;50.600;4.608;2022-07-29T20:30:16;26.20;52.30
22416;DHT22;12204;50.600;4.608;2022-07-29T20:35:21;26.30;52.50
22416;DHT22;12204;50.600;4.608;2022-07-29T20:40:27;26.20;53.10
22416;DHT22;12204;50.600;4.608;2022-07-29T20:45:31;26.30;52.70
22416;DHT22;12204;50.600;4.608;2022-07-29T20:50:35;26.20;52.70
22416;DHT22;12204;50.600;4.608;2022-07-29T20:55:40;26.30;53.80
22416;DHT22;12204;50.600;4.608;2022-07-29T21:00:44;26.30;54.50
22416;DHT22;12204;50.600;4.608;2022-07-29T21:05:49;26.30;55.20
22416;DHT22;12204;50.600;4.608;2022-07-29T21:10:54;26.30;55.60
22416;DHT22;12204;50.600;4.608;2022-07-29T21:20:14;26.20;55.80
22416;DHT22;12204;50.600;4.608;2022-07-29T21:25:19;26.50;52.20
22416;DHT22;12204;50.600;4.608;2022-07-29T21:30:23;26.50;52.10
22416;DHT22;12204;50.600;4.608;2022-07-29T21:35:28;26.40;52.10
22416;DHT22;12204;50.600;4.608;2022-07-29T21:40:52;26.40;52.00
22416;DHT22;12204;50.600;4.608;2022-07-29T21:45:57;26.40;52.10
22416;DHT22;12204;50.600;4.608;2022-07-29T21:51:04;26.40;52.10
22416;DHT22;12204;50.600;4.608;2022-07-29T21:56:08;26.40;52.20
22416;DHT22;12204;50.600;4.608;2022-07-29T22:01:15;26.50;52.40
22416;DHT22;12204;50.600;4.608;2022-07-29T22:06:21;26.50;52.60
22416;DHT22;12204;50.600;4.608;2022-07-29T22:11:25;26.60;53.00
22416;DHT22;12204;50.600;4.608;2022-07-29T22:16:29;26.60;53.00
22416;DHT22;12204;50.600;4.608;2022-07-29T22:21:34;26.60;53.00
22416;DHT22;12204;50.600;4.608;2022-07-29T22:26:37;26.60;53.10
22416;DHT22;12204;50.600;4.608;2022-07-29T22:31:41;26.50;53.10
22416;DHT22;12204;50.600;4.608;2022-07-29T22:36:46;26.60;53.10
22416;DHT22;12204;50.600;4.608;2022-07-29T22:41:50;26.60;53.10
22416;DHT22;12204;50.600;4.608;2022-07-29T22:46:53;26.60;53.00
22416;DHT22;12204;50.600;4.608;2022-07-29T22:51:59;26.50;53.00
22416;DHT22;12204;50.600;4.608;2022-07-29T22:57:03;26.50;53.00
22416;DHT22;12204;50.600;4.608;2022-07-29T23:02:07;26.50;53.00
22416;DHT22;12204;50.600;4.608;2022-07-29T23:07:12;26.50;53.00
22416;DHT22;12204;50.600;4.608;2022-07-29T23:12:16;26.50;53.00
22416;DHT22;12204;50.600;4.608;2022-07-29T23:17:19;26.50;53.00
22416;DHT22;12204;50.600;4.608;2022-07-29T23:22:24;26.50;53.00
22416;DHT22;12204;50.600;4.608;2022-07-29T23:27:28;26.50;53.10
22416;DHT22;12204;50.600;4.608;2022-07-29T23:32:31;26.50;53.30
22416;DHT22;12204;50.600;4.608;2022-07-29T23:37:36;26.50;53.10
22416;DHT22;12204;50.600;4.608;2022-07-29T23:42:41;26.50;53.10
22416;DHT22;12204;50.600;4.608;2022-07-29T23:47:45;26.60;53.20
22416;DHT22;12204;50.600;4.608;2022-07-29T23:52:50;26.50;52.90
22416;DHT22;12204;50.600;4.608;2022-07-29T23:57:53;26.50;52.90
